createdAt,value
2022-12-17T08:21:15.746Z,66.97
2022-12-17T08:24:01.235Z,61.47
2022-12-17T08:26:48.367Z,67.20
2022-12-17T08:29:33.913Z,66.50
2022-12-17T08:32:19.520Z,64.70
2022-12-17T08:35:05.098Z,61.57
2022-12-17T08:37:51.892Z,62.50
2022-12-17T08:40:37.417Z,57.70
2022-12-17T08:43:23.039Z,64.10
2022-12-17T08:46:10.086Z,66.97
2022-12-17T08:48:56.523Z,59.47
2022-12-17T08:51:42.550Z,61.87
2022-12-17T08:54:29.337Z,57.50
2022-12-17T08:57:27.133Z,56.93
2022-12-17T09:00:16.791Z,57.07
2022-12-17T09:03:02.346Z,59.40
2022-12-17T09:05:47.695Z,66.53
2022-12-17T09:08:33.294Z,55.40
2022-12-17T09:11:20.374Z,57.73
2022-12-17T09:14:06.030Z,57.00
2022-12-17T09:16:51.761Z,56.87
2022-12-17T09:19:37.071Z,62.70
2022-12-17T09:22:22.608Z,59.67
2022-12-17T09:25:08.143Z,63.60
2022-12-17T09:27:54.778Z,61.00
2022-12-17T09:30:40.260Z,56.93
2022-12-17T09:33:25.930Z,53.03
2022-12-17T09:36:11.517Z,55.23
2022-12-17T09:38:56.979Z,59.87
2022-12-17T09:41:46.397Z,57.87
2022-12-17T09:44:48.417Z,55.30
2022-12-17T09:47:44.302Z,59.43
2022-12-17T09:50:33.284Z,59.20
2022-12-17T09:53:20.667Z,62.70
2022-12-17T09:56:20.306Z,61.03
2022-12-17T09:59:05.908Z,55.23
2022-12-17T10:01:54.200Z,54.80
2022-12-17T10:04:48.674Z,52.17
2022-12-17T10:07:38.118Z,63.93
2022-12-17T10:10:35.814Z,51.70
2022-12-17T10:13:26.577Z,50.87
2022-12-17T10:16:12.130Z,48.47
2022-12-17T10:18:58.989Z,52.30
2022-12-17T10:21:45.333Z,46.00
2022-12-17T10:24:31.118Z,52.03
2022-12-17T10:27:16.582Z,50.90
2022-12-17T10:30:03.616Z,51.10
2022-12-17T10:32:49.151Z,57.27
2022-12-17T10:35:39.767Z,64.57
2022-12-17T10:38:32.404Z,54.87
2022-12-17T10:41:20.996Z,51.17
2022-12-17T10:44:06.604Z,48.27
2022-12-17T10:46:53.066Z,43.53
2022-12-17T10:49:41.373Z,47.80
2022-12-17T10:52:42.660Z,47.90
2022-12-17T10:55:40.623Z,48.33
2022-12-17T10:58:32.613Z,48.33
2022-12-17T11:01:19.199Z,47.13
2022-12-17T11:04:10.644Z,50.70
2022-12-17T11:06:59.513Z,48.83
2022-12-17T11:10:03.668Z,45.03
2022-12-17T11:12:56.772Z,45.77
2022-12-17T11:15:48.413Z,41.50
2022-12-17T11:18:38.727Z,42.10
2022-12-17T11:21:29.319Z,43.03
2022-12-17T11:24:22.191Z,49.10
2022-12-17T11:27:12.272Z,43.70
2022-12-17T11:29:57.872Z,39.10
2022-12-17T11:33:12.993Z,42.43
2022-12-17T11:36:08.596Z,46.77
2022-12-17T11:38:57.484Z,42.93
2022-12-17T11:41:54.526Z,45.00
2022-12-17T11:44:55.423Z,46.20
2022-12-17T11:47:54.881Z,42.80
2022-12-17T11:50:47.066Z,40.10
2022-12-17T11:53:49.562Z,41.93
2022-12-17T11:56:42.013Z,42.33
2022-12-17T11:59:39.667Z,39.43
2022-12-17T12:02:39.269Z,41.77
2022-12-17T12:05:38.821Z,44.13
2022-12-17T12:08:35.625Z,41.37
2022-12-17T12:11:31.911Z,42.47
2022-12-17T12:14:25.505Z,38.00
2022-12-17T12:17:17.552Z,41.77
2022-12-17T12:20:10.852Z,41.30
2022-12-17T12:23:02.064Z,46.27
2022-12-17T12:25:53.021Z,45.00
2022-12-17T12:28:46.706Z,46.33
2022-12-17T12:31:55.075Z,46.70
2022-12-17T12:34:44.385Z,42.70
2022-12-17T12:37:35.244Z,45.20
2022-12-17T12:40:30.199Z,41.57
2022-12-17T12:43:33.184Z,49.13
2022-12-17T12:46:23.605Z,46.87
2022-12-17T12:49:17.637Z,46.93
2022-12-17T12:52:03.261Z,40.93
2022-12-17T12:55:08.577Z,44.90
2022-12-17T12:57:56.057Z,42.43
2022-12-17T13:00:44.314Z,39.30
2022-12-17T13:03:47.941Z,45.50
2022-12-17T13:06:39.923Z,48.20
2022-12-17T13:09:30.735Z,39.87
2022-12-17T13:12:29.840Z,41.90
2022-12-17T13:15:14.854Z,41.73
2022-12-17T13:17:46.970Z,42.13
2022-12-17T13:20:30.400Z,45.53
2022-12-17T13:23:27.664Z,43.67
2022-12-17T13:26:23.685Z,46.83
2022-12-17T13:29:12.673Z,47.57
2022-12-17T13:31:56.089Z,45.00
2022-12-17T13:34:32.445Z,42.03
2022-12-17T13:37:08.412Z,46.57
2022-12-17T13:39:44.535Z,48.43
2022-12-17T13:42:20.190Z,42.97
2022-12-17T13:44:49.932Z,47.13
2022-12-17T13:47:23.838Z,53.60
2022-12-17T13:50:24.435Z,55.80
2022-12-17T13:52:41.151Z,49.13
2022-12-17T13:55:11.265Z,52.13
2022-12-17T13:57:39.644Z,50.67
2022-12-17T14:00:21.409Z,51.80
2022-12-17T14:02:49.688Z,63.83
2022-12-17T14:05:27.126Z,58.93
2022-12-17T14:07:55.476Z,60.80
2022-12-17T14:10:23.563Z,61.93
2022-12-17T14:12:51.431Z,63.73
2022-12-17T14:15:26.084Z,58.87
2022-12-17T14:17:56.450Z,67.00
2022-12-17T14:20:26.967Z,66.37
2022-12-17T14:22:57.856Z,68.10
2022-12-17T14:25:28.310Z,64.33
2022-12-17T14:27:58.748Z,68.00
2022-12-17T14:30:46.207Z,63.30
2022-12-17T14:33:29.469Z,66.43
2022-12-17T14:36:02.066Z,63.87
2022-12-17T14:38:48.476Z,65.57
2022-12-17T14:41:34.478Z,71.27
2022-12-17T14:44:04.147Z,71.93
2022-12-17T14:46:35.676Z,75.40
2022-12-17T14:49:05.930Z,74.83
2022-12-17T14:51:37.468Z,72.83
2022-12-17T14:54:29.088Z,77.53
2022-12-17T14:56:58.917Z,75.63
2022-12-17T14:59:31.908Z,80.60
2022-12-17T15:02:03.836Z,82.63
